sensor_id;sensor_type;location;lat;lon;timestamp;pressure;altitude;pressure_sealevel;temperature;humidity
46464;BME280;32161;48.148;-1.554;2023-05-15T00:01:27;101336.47;;;13.75;89.86
46464;BME280;32161;48.148;-1.554;2023-05-15T00:03:55;101341.09;;;13.74;89.32
46464;BME280;32161;48.148;-1.554;2023-05-15T00:06:23;101335.66;;;13.74;89.66
46464;BME280;32161;48.148;-1.554;2023-05-15T00:08:51;101336.25;;;13.76;89.14
46464;BME280;32161;48.148;-1.554;2023-05-15T00:11:19;101328.88;;;13.77;89.13
46464;BME280;32161;48.148;-1.554;2023-05-15T00:13:48;101330.28;;;13.79;88.97
46464;BME280;32161;48.148;-1.554;2023-05-15T00:16:16;101335.75;;;13.79;89.20
46464;BME280;32161;48.148;-1.554;2023-05-15T00:18:45;101331.13;;;13.80;89.11
46464;BME280;32161;48.148;-1.554;2023-05-15T00:21:12;101334.34;;;13.77;88.99
46464;BME280;32161;48.148;-1.554;2023-05-15T00:23:40;101335.41;;;13.76;89.64
46464;BME280;32161;48.148;-1.554;2023-05-15T00:26:08;101317.59;;;13.73;89.72
46464;BME280;32161;48.148;-1.554;2023-05-15T00:28:35;101325.78;;;13.73;89.96
46464;BME280;32161;48.148;-1.554;2023-05-15T00:31:03;101323.28;;;13.72;90.01
46464;BME280;32161;48.148;-1.554;2023-05-15T00:33:31;101317.34;;;13.75;90.20
46464;BME280;32161;48.148;-1.554;2023-05-15T00:36:00;101317.13;;;13.76;90.33
46464;BME280;32161;48.148;-1.554;2023-05-15T00:38:27;101314.63;;;13.75;90.24
46464;BME280;32161;48.148;-1.554;2023-05-15T00:40:55;101316.03;;;13.77;90.74
46464;BME280;32161;48.148;-1.554;2023-05-15T00:43:25;101310.81;;;13.76;91.07
46464;BME280;32161;48.148;-1.554;2023-05-15T00:45:54;101315.69;;;13.74;90.90
46464;BME280;32161;48.148;-1.554;2023-05-15T00:48:23;101305.59;;;13.74;90.85
46464;BME280;32161;48.148;-1.554;2023-05-15T00:50:51;101300.13;;;13.74;91.01
46464;BME280;32161;48.148;-1.554;2023-05-15T00:53:21;101299.03;;;13.75;90.87
46464;BME280;32161;48.148;-1.554;2023-05-15T00:55:53;101293.84;;;13.74;90.71
46464;BME280;32161;48.148;-1.554;2023-05-15T00:58:23;101297.88;;;13.71;90.55
46464;BME280;32161;48.148;-1.554;2023-05-15T01:00:51;101292.66;;;13.70;90.56
46464;BME280;32161;48.148;-1.554;2023-05-15T01:03:19;101293.13;;;13.66;90.64
46464;BME280;32161;48.148;-1.554;2023-05-15T01:05:47;101290.63;;;13.65;90.74
46464;BME280;32161;48.148;-1.554;2023-05-15T01:08:22;101283.47;;;13.64;90.85
46464;BME280;32161;48.148;-1.554;2023-05-15T01:10:53;101295.03;;;13.66;90.07
46464;BME280;32161;48.148;-1.554;2023-05-15T01:13:23;101286.22;;;13.64;89.99
46464;BME280;32161;48.148;-1.554;2023-05-15T01:15:51;101296.31;;;13.63;90.02
46464;BME280;32161;48.148;-1.554;2023-05-15T01:18:18;101288.84;;;13.59;90.29
46464;BME280;32161;48.148;-1.554;2023-05-15T01:21:17;101286.09;;;13.59;91.31
46464;BME280;32161;48.148;-1.554;2023-05-15T01:24:12;101290.13;;;13.56;91.67
46464;BME280;32161;48.148;-1.554;2023-05-15T01:27:16;101289.56;;;13.54;91.83
46464;BME280;32161;48.148;-1.554;2023-05-15T01:29:54;101293.00;;;13.50;92.44
46464;BME280;32161;48.148;-1.554;2023-05-15T01:32:31;101292.84;;;13.44;93.13
46464;BME280;32161;48.148;-1.554;2023-05-15T01:35:08;101281.09;;;13.44;93.55
46464;BME280;32161;48.148;-1.554;2023-05-15T01:37:40;101279.19;;;13.44;93.70
46464;BME280;32161;48.148;-1.554;2023-05-15T01:40:11;101277.91;;;13.47;94.09
46464;BME280;32161;48.148;-1.554;2023-05-15T01:42:46;101279.81;;;13.47;94.42
46464;BME280;32161;48.148;-1.554;2023-05-15T01:45:18;101268.88;;;13.47;94.62
46464;BME280;32161;48.148;-1.554;2023-05-15T01:47:48;101269.97;;;13.46;94.30
46464;BME280;32161;48.148;-1.554;2023-05-15T01:50:17;101266.16;;;13.47;94.81
46464;BME280;32161;48.148;-1.554;2023-05-15T01:52:49;101254.16;;;13.48;94.60
46464;BME280;32161;48.148;-1.554;2023-05-15T01:55:18;101259.16;;;13.51;94.36
46464;BME280;32161;48.148;-1.554;2023-05-15T01:57:50;101255.94;;;13.54;94.15
46464;BME280;32161;48.148;-1.554;2023-05-15T02:00:20;101255.94;;;13.54;93.75
46464;BME280;32161;48.148;-1.554;2023-05-15T02:02:49;101249.41;;;13.55;93.78
46464;BME280;32161;48.148;-1.554;2023-05-15T02:05:17;101244.56;;;13.57;93.40
46464;BME280;32161;48.148;-1.554;2023-05-15T02:07:45;101241.81;;;13.57;93.22
46464;BME280;32161;48.148;-1.554;2023-05-15T02:10:13;101249.78;;;13.58;93.33
46464;BME280;32161;48.148;-1.554;2023-05-15T02:12:43;101246.22;;;13.58;93.32
46464;BME280;32161;48.148;-1.554;2023-05-15T02:15:13;101252.75;;;13.57;92.84
46464;BME280;32161;48.148;-1.554;2023-05-15T02:17:41;101251.06;;;13.56;93.27
46464;BME280;32161;48.148;-1.554;2023-05-15T02:20:09;101248.81;;;13.53;93.44
46464;BME280;32161;48.148;-1.554;2023-05-15T02:22:36;101249.41;;;13.55;93.29
46464;BME280;32161;48.148;-1.554;2023-05-15T02:25:05;101254.63;;;13.56;93.57
46464;BME280;32161;48.148;-1.554;2023-05-15T02:27:37;101243.69;;;13.56;93.80
46464;BME280;32161;48.148;-1.554;2023-05-15T02:30:33;101249.78;;;13.58;94.39
46464;BME280;32161;48.148;-1.554;2023-05-15T02:33:11;101241.81;;;13.57;94.41
46464;BME280;32161;48.148;-1.554;2023-05-15T02:35:47;101252.75;;;13.57;94.55
46464;BME280;32161;48.148;-1.554;2023-05-15T02:38:23;101263.44;;;13.58;94.75
46464;BME280;32161;48.148;-1.554;2023-05-15T02:40:55;101265.34;;;13.58;94.52
46464;BME280;32161;48.148;-1.554;2023-05-15T02:43:24;101271.63;;;13.58;94.37
46464;BME280;32161;48.148;-1.554;2023-05-15T02:45:56;101267.22;;;13.57;94.52
46464;BME280;32161;48.148;-1.554;2023-05-15T02:48:24;101262.00;;;13.56;94.91
46464;BME280;32161;48.148;-1.554;2023-05-15T02:50:52;101263.91;;;13.55;94.94
46464;BME280;32161;48.148;-1.554;2023-05-15T02:53:20;101258.91;;;13.52;95.53
46464;BME280;32161;48.148;-1.554;2023-05-15T02:55:48;101255.34;;;13.52;95.45
46464;BME280;32161;48.148;-1.554;2023-05-15T02:58:15;101257.84;;;13.53;95.84
46464;BME280;32161;48.148;-1.554;2023-05-15T03:00:43;101258.44;;;13.55;95.86
46464;BME280;32161;48.148;-1.554;2023-05-15T03:03:12;101244.31;;;13.58;95.69
46464;BME280;32161;48.148;-1.554;2023-05-15T03:05:40;101241.31;;;13.60;95.86
46464;BME280;32161;48.148;-1.554;2023-05-15T03:08:07;101250.13;;;13.62;95.22
46464;BME280;32161;48.148;-1.554;2023-05-15T03:10:35;101239.19;;;13.62;95.39
46464;BME280;32161;48.148;-1.554;2023-05-15T03:13:02;101250.94;;;13.62;95.63
46464;BME280;32161;48.148;-1.554;2023-05-15T03:15:31;101247.16;;;13.63;95.38
46464;BME280;32161;48.148;-1.554;2023-05-15T03:17:59;101242.03;;;13.67;95.60
46464;BME280;32161;48.148;-1.554;2023-05-15T03:20:28;101240.75;;;13.70;94.60
46464;BME280;32161;48.148;-1.554;2023-05-15T03:22:56;101243.13;;;13.66;94.58
46464;BME280;32161;48.148;-1.554;2023-05-15T03:25:24;101233.50;;;13.63;94.84
46464;BME280;32161;48.148;-1.554;2023-05-15T03:27:52;101231.00;;;13.62;94.55
46464;BME280;32161;48.148;-1.554;2023-05-15T03:30:19;101232.44;;;13.64;94.11
46464;BME280;32161;48.148;-1.554;2023-05-15T03:32:47;101231.13;;;13.55;94.23
46464;BME280;32161;48.148;-1.554;2023-05-15T03:35:15;101226.94;;;13.53;94.35
46464;BME280;32161;48.148;-1.554;2023-05-15T03:37:43;101225.31;;;13.52;93.90
46464;BME280;32161;48.148;-1.554;2023-05-15T03:40:13;101222.00;;;13.50;93.55
46464;BME280;32161;48.148;-1.554;2023-05-15T03:42:40;101222.47;;;13.47;93.71
46464;BME280;32161;48.148;-1.554;2023-05-15T03:45:09;101222.69;;;13.45;93.71
46464;BME280;32161;48.148;-1.554;2023-05-15T03:47:36;101222.94;;;13.43;93.47
46464;BME280;32161;48.148;-1.554;2023-05-15T03:50:05;101221.84;;;13.44;93.70
46464;BME280;32161;48.148;-1.554;2023-05-15T03:52:33;101213.66;;;13.44;94.00
46464;BME280;32161;48.148;-1.554;2023-05-15T03:55:02;101217.47;;;13.43;93.98
46464;BME280;32161;48.148;-1.554;2023-05-15T03:57:30;101214.75;;;13.43;93.82
46464;BME280;32161;48.148;-1.554;2023-05-15T03:59:58;101223.75;;;13.44;94.22
46464;BME280;32161;48.148;-1.554;2023-05-15T04:02:28;101222.09;;;13.43;94.35
46464;BME280;32161;48.148;-1.554;2023-05-15T04:04:56;101225.66;;;13.43;94.83
46464;BME280;32161;48.148;-1.554;2023-05-15T04:07:24;101221.84;;;13.44;94.53
46464;BME280;32161;48.148;-1.554;2023-05-15T04:09:51;101219.13;;;13.44;94.26
46464;BME280;32161;48.148;-1.554;2023-05-15T04:12:20;101218.28;;;13.44;94.28
46464;BME280;32161;48.148;-1.554;2023-05-15T04:14:48;101215.81;;;13.42;94.02
46464;BME280;32161;48.148;-1.554;2023-05-15T04:17:15;101217.09;;;13.40;94.25
46464;BME280;32161;48.148;-1.554;2023-05-15T04:19:43;101219.47;;;13.36;93.99
46464;BME280;32161;48.148;-1.554;2023-05-15T04:22:13;101217.00;;;13.35;93.51
46464;BME280;32161;48.148;-1.554;2023-05-15T04:24:40;101207.16;;;13.34;93.41
46464;BME280;32161;48.148;-1.554;2023-05-15T04:27:08;101212.00;;;13.32;93.66
46464;BME280;32161;48.148;-1.554;2023-05-15T04:29:37;101210.34;;;13.31;93.84
46464;BME280;32161;48.148;-1.554;2023-05-15T04:32:04;101216.03;;;13.29;93.40
46464;BME280;32161;48.148;-1.554;2023-05-15T04:34:32;101218.19;;;13.27;92.73
46464;BME280;32161;48.148;-1.554;2023-05-15T04:37:00;101217.00;;;13.23;93.31
46464;BME280;32161;48.148;-1.554;2023-05-15T04:39:27;101211.72;;;13.22;94.24
46464;BME280;32161;48.148;-1.554;2023-05-15T04:41:55;101211.72;;;13.22;94.67
46464;BME280;32161;48.148;-1.554;2023-05-15T04:44:23;101211.97;;;13.20;94.54
46464;BME280;32161;48.148;-1.554;2023-05-15T04:46:52;101214.09;;;13.18;94.81
46464;BME280;32161;48.148;-1.554;2023-05-15T04:49:19;101215.41;;;13.15;95.46
46464;BME280;32161;48.148;-1.554;2023-05-15T04:51:47;101206.41;;;13.15;95.21
46464;BME280;32161;48.148;-1.554;2023-05-15T04:54:14;101211.25;;;13.13;95.14
46464;BME280;32161;48.148;-1.554;2023-05-15T04:56:42;101206.88;;;13.12;95.22
46464;BME280;32161;48.148;-1.554;2023-05-15T04:59:09;101203.31;;;13.11;95.45
46464;BME280;32161;48.148;-1.554;2023-05-15T05:01:38;101208.41;;;13.08;95.60
46464;BME280;32161;48.148;-1.554;2023-05-15T05:04:07;101208.63;;;13.06;95.70
46464;BME280;32161;48.148;-1.554;2023-05-15T05:06:35;101212.66;;;13.04;96.20
46464;BME280;32161;48.148;-1.554;2023-05-15T05:09:03;101210.97;;;13.03;96.11
46464;BME280;32161;48.148;-1.554;2023-05-15T05:11:30;101217.88;;;13.05;96.37
46464;BME280;32161;48.148;-1.554;2023-05-15T05:13:58;101214.06;;;13.06;97.02
46464;BME280;32161;48.148;-1.554;2023-05-15T05:16:26;101211.97;;;13.08;96.96
46464;BME280;32161;48.148;-1.554;2023-05-15T05:18:54;101215.88;;;13.12;97.79
46464;BME280;32161;48.148;-1.554;2023-05-15T05:21:23;101220.88;;;13.15;97.44
46464;BME280;32161;48.148;-1.554;2023-05-15T05:23:50;101221.44;;;13.17;97.72
46464;BME280;32161;48.148;-1.554;2023-05-15T05:26:18;101219.56;;;13.18;97.72
46464;BME280;32161;48.148;-1.554;2023-05-15T05:28:46;101215.53;;;13.20;97.70
46464;BME280;32161;48.148;-1.554;2023-05-15T05:31:13;101216.13;;;13.23;98.10
46464;BME280;32161;48.148;-1.554;2023-05-15T05:33:41;101217.34;;;13.27;98.02
46464;BME280;32161;48.148;-1.554;2023-05-15T05:36:09;101221.50;;;13.29;97.45
46464;BME280;32161;48.148;-1.554;2023-05-15T05:38:38;101223.19;;;13.30;97.35
46464;BME280;32161;48.148;-1.554;2023-05-15T05:41:06;101228.75;;;13.35;97.77
46464;BME280;32161;48.148;-1.554;2023-05-15T05:43:33;101225.56;;;13.38;97.42
46464;BME280;32161;48.148;-1.554;2023-05-15T05:46:01;101232.19;;;13.42;97.70
46464;BME280;32161;48.148;-1.554;2023-05-15T05:48:29;101231.72;;;13.46;97.73
46464;BME280;32161;48.148;-1.554;2023-05-15T05:50:57;101231.22;;;13.49;97.79
46464;BME280;32161;48.148;-1.554;2023-05-15T05:53:25;101230.19;;;13.50;97.44
46464;BME280;32161;48.148;-1.554;2023-05-15T05:55:54;101225.31;;;13.52;97.22
46464;BME280;32161;48.148;-1.554;2023-05-15T05:58:21;101233.63;;;13.57;96.70
46464;BME280;32161;48.148;-1.554;2023-05-15T06:00:49;101230.91;;;13.57;96.43
46464;BME280;32161;48.148;-1.554;2023-05-15T06:03:17;101227.66;;;13.60;96.37
46464;BME280;32161;48.148;-1.554;2023-05-15T06:05:44;101224.72;;;13.61;96.60
46464;BME280;32161;48.148;-1.554;2023-05-15T06:08:13;101222.34;;;13.65;96.64
46464;BME280;32161;48.148;-1.554;2023-05-15T06:10:41;101219.09;;;13.68;96.69
46464;BME280;32161;48.148;-1.554;2023-05-15T06:13:10;101231.25;;;13.72;96.75
46464;BME280;32161;48.148;-1.554;2023-05-15T06:15:39;101230.75;;;13.75;96.40
46464;BME280;32161;48.148;-1.554;2023-05-15T06:18:07;101230.50;;;13.88;95.83
46464;BME280;32161;48.148;-1.554;2023-05-15T06:20:34;101233.09;;;13.83;95.23
46464;BME280;32161;48.148;-1.554;2023-05-15T06:23:02;101234.91;;;13.78;95.62
46464;BME280;32161;48.148;-1.554;2023-05-15T06:25:30;101235.16;;;13.76;95.34
46464;BME280;32161;48.148;-1.554;2023-05-15T06:27:57;101236.09;;;13.70;95.69
46464;BME280;32161;48.148;-1.554;2023-05-15T06:30:27;101235.28;;;13.70;96.18
46464;BME280;32161;48.148;-1.554;2023-05-15T06:32:54;101232.66;;;13.75;96.39
46464;BME280;32161;48.148;-1.554;2023-05-15T06:35:22;101235.16;;;13.76;97.02
46464;BME280;32161;48.148;-1.554;2023-05-15T06:37:50;101236.00;;;13.77;96.65
46464;BME280;32161;48.148;-1.554;2023-05-15T06:40:19;101235.72;;;13.78;96.49
46464;BME280;32161;48.148;-1.554;2023-05-15T06:42:46;101237.38;;;13.79;96.49
46464;BME280;32161;48.148;-1.554;2023-05-15T06:45:14;101236.56;;;13.79;97.25
46464;BME280;32161;48.148;-1.554;2023-05-15T06:47:43;101238.00;;;13.81;96.92
46464;BME280;32161;48.148;-1.554;2023-05-15T06:50:10;101233.34;;;13.82;96.81
46464;BME280;32161;48.148;-1.554;2023-05-15T06:52:38;101226.81;;;13.83;96.89
46464;BME280;32161;48.148;-1.554;2023-05-15T06:55:06;101227.78;;;13.88;97.18
46464;BME280;32161;48.148;-1.554;2023-05-15T06:57:34;101212.56;;;13.92;96.92
46464;BME280;32161;48.148;-1.554;2023-05-15T07:00:02;101226.31;;;13.98;96.94
46464;BME280;32161;48.148;-1.554;2023-05-15T07:02:31;101222.63;;;14.04;96.98
46464;BME280;32161;48.148;-1.554;2023-05-15T07:04:59;101218.09;;;14.09;96.65
46464;BME280;32161;48.148;-1.554;2023-05-15T07:07:27;101212.47;;;14.16;96.11
46464;BME280;32161;48.148;-1.554;2023-05-15T07:09:54;101213.41;;;14.22;96.32
46464;BME280;32161;48.148;-1.554;2023-05-15T07:12:22;101221.94;;;14.25;96.72
46464;BME280;32161;48.148;-1.554;2023-05-15T07:14:50;101218.50;;;14.30;96.85
46464;BME280;32161;48.148;-1.554;2023-05-15T07:17:17;101209.91;;;14.38;97.13
46464;BME280;32161;48.148;-1.554;2023-05-15T07:19:45;101212.13;;;14.41;96.95
46464;BME280;32161;48.148;-1.554;2023-05-15T07:22:14;101209.53;;;14.46;96.86
46464;BME280;32161;48.148;-1.554;2023-05-15T07:24:41;101205.00;;;14.52;96.42
46464;BME280;32161;48.148;-1.554;2023-05-15T07:27:09;101195.69;;;14.53;95.59
46464;BME280;32161;48.148;-1.554;2023-05-15T07:29:37;101203.44;;;14.56;95.56
46464;BME280;32161;48.148;-1.554;2023-05-15T07:32:05;101202.59;;;14.55;95.85
46464;BME280;32161;48.148;-1.554;2023-05-15T07:34:32;101195.13;;;14.51;96.40
46464;BME280;32161;48.148;-1.554;2023-05-15T07:37:00;101199.94;;;14.60;96.43
46464;BME280;32161;48.148;-1.554;2023-05-15T07:39:29;101206.84;;;14.63;96.39
46464;BME280;32161;48.148;-1.554;2023-05-15T07:41:57;101222.03;;;14.71;95.98
46464;BME280;32161;48.148;-1.554;2023-05-15T07:44:24;101225.94;;;14.75;96.25
46464;BME280;32161;48.148;-1.554;2023-05-15T07:46:53;101229.16;;;14.72;96.08
46464;BME280;32161;48.148;-1.554;2023-05-15T07:49:21;101235.97;;;14.69;96.74
46464;BME280;32161;48.148;-1.554;2023-05-15T07:51:49;101231.56;;;14.68;97.00
46464;BME280;32161;48.148;-1.554;2023-05-15T07:54:16;101219.63;;;14.74;98.09
46464;BME280;32161;48.148;-1.554;2023-05-15T07:56:45;101222.22;;;14.81;97.80
46464;BME280;32161;48.148;-1.554;2023-05-15T07:59:13;101222.78;;;14.83;97.69
46464;BME280;32161;48.148;-1.554;2023-05-15T08:01:40;101219.22;;;14.82;96.82
46464;BME280;32161;48.148;-1.554;2023-05-15T08:04:08;101214.34;;;14.84;96.71
46464;BME280;32161;48.148;-1.554;2023-05-15T08:06:36;101219.91;;;14.89;97.24
46464;BME280;32161;48.148;-1.554;2023-05-15T08:09:04;101219.56;;;14.86;97.12
46464;BME280;32161;48.148;-1.554;2023-05-15T08:11:32;101224.88;;;14.93;96.81
46464;BME280;32161;48.148;-1.554;2023-05-15T08:14:01;101222.16;;;14.93;97.60
46464;BME280;32161;48.148;-1.554;2023-05-15T08:16:28;101220.66;;;15.02;98.16
46464;BME280;32161;48.148;-1.554;2023-05-15T08:18:56;101221.25;;;15.04;98.36
46464;BME280;32161;48.148;-1.554;2023-05-15T08:21:26;101220.16;;;15.05;98.26
46464;BME280;32161;48.148;-1.554;2023-05-15T08:23:54;101219.41;;;15.09;98.85
46464;BME280;32161;48.148;-1.554;2023-05-15T08:26:22;101217.75;;;15.25;98.51
46464;BME280;32161;48.148;-1.554;2023-05-15T08:28:50;101211.38;;;15.20;98.54
46464;BME280;32161;48.148;-1.554;2023-05-15T08:31:18;101210.56;;;15.19;97.83
46464;BME280;32161;48.148;-1.554;2023-05-15T08:33:46;101208.88;;;15.18;97.48
46464;BME280;32161;48.148;-1.554;2023-05-15T08:36:13;101209.53;;;15.25;97.88
46464;BME280;32161;48.148;-1.554;2023-05-15T08:38:43;101212.28;;;15.25;98.42
46464;BME280;32161;48.148;-1.554;2023-05-15T08:41:20;101211.28;;;15.31;98.41
46464;BME280;32161;48.148;-1.554;2023-05-15T08:43:53;101213.84;;;15.38;98.01
46464;BME280;32161;48.148;-1.554;2023-05-15T08:46:23;101214.09;;;15.36;97.90
46464;BME280;32161;48.148;-1.554;2023-05-15T08:48:52;101203.63;;;15.33;97.51
46464;BME280;32161;48.148;-1.554;2023-05-15T08:51:21;101206.47;;;15.38;97.64
46464;BME280;32161;48.148;-1.554;2023-05-15T08:53:50;101211.44;;;15.42;97.20
46464;BME280;32161;48.148;-1.554;2023-05-15T08:56:17;101204.63;;;15.44;96.66
46464;BME280;32161;48.148;-1.554;2023-05-15T08:58:45;101204.94;;;15.48;96.93
46464;BME280;32161;48.148;-1.554;2023-05-15T09:01:13;101207.47;;;15.49;97.03
46464;BME280;32161;48.148;-1.554;2023-05-15T09:03:43;101209.44;;;15.54;97.27
46464;BME280;32161;48.148;-1.554;2023-05-15T09:06:11;101210.75;;;15.51;98.15
46464;BME280;32161;48.148;-1.554;2023-05-15T09:08:40;101214.16;;;15.58;98.78
46464;BME280;32161;48.148;-1.554;2023-05-15T09:11:09;101210.41;;;15.65;98.46
46464;BME280;32161;48.148;-1.554;2023-05-15T09:13:38;101207.78;;;15.53;98.30
46464;BME280;32161;48.148;-1.554;2023-05-15T09:16:06;101207.78;;;15.53;98.50
46464;BME280;32161;48.148;-1.554;2023-05-15T09:18:34;101210.59;;;15.58;98.72
46464;BME280;32161;48.148;-1.554;2023-05-15T09:21:26;101200.31;;;15.65;98.70
46464;BME280;32161;48.148;-1.554;2023-05-15T09:23:56;101204.06;;;15.64;98.07
46464;BME280;32161;48.148;-1.554;2023-05-15T09:26:41;101200.78;;;15.62;97.52
46464;BME280;32161;48.148;-1.554;2023-05-15T09:29:09;101203.59;;;15.67;97.70
46464;BME280;32161;48.148;-1.554;2023-05-15T09:31:37;101204.59;;;15.61;98.44
46464;BME280;32161;48.148;-1.554;2023-05-15T09:34:06;101206.34;;;15.67;98.98
46464;BME280;32161;48.148;-1.554;2023-05-15T09:36:42;101201.13;;;15.66;99.04
46464;BME280;32161;48.148;-1.554;2023-05-15T09:39:10;101201.47;;;15.69;98.77
46464;BME280;32161;48.148;-1.554;2023-05-15T09:41:41;101204.25;;;15.74;98.34
46464;BME280;32161;48.148;-1.554;2023-05-15T09:44:18;101208.75;;;15.80;98.71
46464;BME280;32161;48.148;-1.554;2023-05-15T09:46:46;101204.97;;;15.86;97.79
46464;BME280;32161;48.148;-1.554;2023-05-15T09:49:14;101205.59;;;15.94;98.03
46464;BME280;32161;48.148;-1.554;2023-05-15T09:51:44;101201.34;;;16.03;97.21
46464;BME280;32161;48.148;-1.554;2023-05-15T09:54:14;101208.03;;;16.12;96.38
46464;BME280;32161;48.148;-1.554;2023-05-15T09:56:43;101211.47;;;16.24;97.34
46464;BME280;32161;48.148;-1.554;2023-05-15T09:59:14;101208.72;;;16.24;96.89
46464;BME280;32161;48.148;-1.554;2023-05-15T10:01:43;101197.72;;;16.19;97.00
46464;BME280;32161;48.148;-1.554;2023-05-15T10:04:12;101205.94;;;16.19;97.08
46464;BME280;32161;48.148;-1.554;2023-05-15T10:06:42;101209.78;;;16.18;96.62
46464;BME280;32161;48.148;-1.554;2023-05-15T10:09:12;101211.41;;;16.19;95.68
46464;BME280;32161;48.148;-1.554;2023-05-15T10:11:42;101203.25;;;16.24;95.50
46464;BME280;32161;48.148;-1.554;2023-05-15T10:14:11;101202.16;;;16.25;95.42
46464;BME280;32161;48.148;-1.554;2023-05-15T10:16:40;101204.47;;;16.33;95.99
46464;BME280;32161;48.148;-1.554;2023-05-15T10:19:09;101199.53;;;16.35;96.29
46464;BME280;32161;48.148;-1.554;2023-05-15T10:21:39;101203.38;;;16.34;96.27
46464;BME280;32161;48.148;-1.554;2023-05-15T10:24:08;101204.00;;;16.42;96.13
46464;BME280;32161;48.148;-1.554;2023-05-15T10:26:39;101196.91;;;16.46;96.18
46464;BME280;32161;48.148;-1.554;2023-05-15T10:29:10;101198.56;;;16.47;95.47
46464;BME280;32161;48.148;-1.554;2023-05-15T10:31:39;101201.28;;;16.47;95.83
46464;BME280;32161;48.148;-1.554;2023-05-15T10:34:08;101205.69;;;16.48;95.94
46464;BME280;32161;48.148;-1.554;2023-05-15T10:36:37;101200.16;;;16.43;94.70
46464;BME280;32161;48.148;-1.554;2023-05-15T10:39:07;101208.53;;;16.31;94.12
46464;BME280;32161;48.148;-1.554;2023-05-15T10:41:39;101208.59;;;16.14;95.72
46464;BME280;32161;48.148;-1.554;2023-05-15T10:44:06;101213.50;;;15.68;97.55
46464;BME280;32161;48.148;-1.554;2023-05-15T10:46:35;101214.03;;;15.31;99.68
46464;BME280;32161;48.148;-1.554;2023-05-15T10:49:03;101211.78;;;15.28;100.00
46464;BME280;32161;48.148;-1.554;2023-05-15T10:51:32;101210.44;;;15.48;100.00
46464;BME280;32161;48.148;-1.554;2023-05-15T10:54:02;101206.94;;;15.52;100.00
46464;BME280;32161;48.148;-1.554;2023-05-15T10:56:30;101217.06;;;15.52;100.00
46464;BME280;32161;48.148;-1.554;2023-05-15T10:59:06;101206.44;;;15.55;100.00
46464;BME280;32161;48.148;-1.554;2023-05-15T11:01:35;101217.38;;;15.55;100.00
46464;BME280;32161;48.148;-1.554;2023-05-15T11:04:09;101221.53;;;15.58;100.00
46464;BME280;32161;48.148;-1.554;2023-05-15T11:06:38;101222.47;;;15.47;99.67
46464;BME280;32161;48.148;-1.554;2023-05-15T11:09:35;101226.75;;;15.59;100.00
46464;BME280;32161;48.148;-1.554;2023-05-15T11:12:06;101226.13;;;15.35;100.00
46464;BME280;32161;48.148;-1.554;2023-05-15T11:14:38;101227.13;;;15.46;99.38
46464;BME280;32161;48.148;-1.554;2023-05-15T11:17:08;101225.25;;;15.30;100.00
46464;BME280;32161;48.148;-1.554;2023-05-15T11:19:55;101225.16;;;15.08;100.00
46464;BME280;32161;48.148;-1.554;2023-05-15T11:22:31;101231.19;;;15.10;100.00
46464;BME280;32161;48.148;-1.554;2023-05-15T11:25:04;101238.31;;;15.45;100.00
46464;BME280;32161;48.148;-1.554;2023-05-15T11:27:39;101235.44;;;15.68;100.00
46464;BME280;32161;48.148;-1.554;2023-05-15T11:30:13;101238.25;;;15.39;100.00
46464;BME280;32161;48.148;-1.554;2023-05-15T11:32:56;101238.41;;;15.67;100.00
46464;BME280;32161;48.148;-1.554;2023-05-15T11:35:27;101245.31;;;15.69;100.00
46464;BME280;32161;48.148;-1.554;2023-05-15T11:37:57;101242.31;;;15.54;100.00
46464;BME280;32161;48.148;-1.554;2023-05-15T11:40:28;101240.47;;;15.59;100.00
46464;BME280;32161;48.148;-1.554;2023-05-15T11:43:04;101238.06;;;15.80;100.00
46464;BME280;32161;48.148;-1.554;2023-05-15T11:45:36;101245.72;;;15.61;100.00
46464;BME280;32161;48.148;-1.554;2023-05-15T11:48:06;101246.63;;;15.50;100.00
46464;BME280;32161;48.148;-1.554;2023-05-15T11:50:35;101236.50;;;15.33;100.00
46464;BME280;32161;48.148;-1.554;2023-05-15T11:53:04;101241.25;;;15.38;98.75
46464;BME280;32161;48.148;-1.554;2023-05-15T11:55:35;101242.63;;;15.41;98.60
46464;BME280;32161;48.148;-1.554;2023-05-15T11:58:04;101246.28;;;15.29;100.00
46464;BME280;32161;48.148;-1.554;2023-05-15T12:00:33;101254.28;;;15.31;100.00
46464;BME280;32161;48.148;-1.554;2023-05-15T12:03:02;101255.34;;;15.47;100.00
46464;BME280;32161;48.148;-1.554;2023-05-15T12:05:29;101257.19;;;15.24;100.00
46464;BME280;32161;48.148;-1.554;2023-05-15T12:07:57;101257.25;;;15.29;100.00
46464;BME280;32161;48.148;-1.554;2023-05-15T12:10:25;101259.91;;;15.41;100.00
46464;BME280;32161;48.148;-1.554;2023-05-15T12:12:52;101265.47;;;15.46;98.95
46464;BME280;32161;48.148;-1.554;2023-05-15T12:15:20;101260.56;;;14.98;100.00
46464;BME280;32161;48.148;-1.554;2023-05-15T12:17:49;101267.94;;;14.97;100.00
46464;BME280;32161;48.148;-1.554;2023-05-15T12:20:17;101263.22;;;15.09;100.00
46464;BME280;32161;48.148;-1.554;2023-05-15T12:22:45;101262.63;;;14.90;100.00
46464;BME280;32161;48.148;-1.554;2023-05-15T12:25:14;101264.22;;;15.03;100.00
46464;BME280;32161;48.148;-1.554;2023-05-15T12:27:43;101271.50;;;14.98;100.00
46464;BME280;32161;48.148;-1.554;2023-05-15T12:30:13;101269.88;;;15.13;99.18
46464;BME280;32161;48.148;-1.554;2023-05-15T12:32:41;101271.34;;;14.87;99.29
46464;BME280;32161;48.148;-1.554;2023-05-15T12:35:11;101272.00;;;14.95;98.21
46464;BME280;32161;48.148;-1.554;2023-05-15T12:37:40;101276.81;;;14.87;99.69
46464;BME280;32161;48.148;-1.554;2023-05-15T12:40:09;101280.13;;;14.89;100.00
46464;BME280;32161;48.148;-1.554;2023-05-15T12:42:41;101280.13;;;14.89;99.97
46464;BME280;32161;48.148;-1.554;2023-05-15T12:45:13;101274.16;;;14.93;100.00
46464;BME280;32161;48.148;-1.554;2023-05-15T12:47:42;101280.78;;;14.80;100.00
46464;BME280;32161;48.148;-1.554;2023-05-15T12:50:16;101291.13;;;14.78;100.00